sensor_id;sensor_type;location;lat;lon;timestamp;temperature;humidity
28763;DHT22;15918;51.270;6.522;2023-04-19T00:00:05;14.20;59.70
28763;DHT22;15918;51.270;6.522;2023-04-19T00:02:34;14.20;59.70
28763;DHT22;15918;51.270;6.522;2023-04-19T00:05:00;14.20;60.40
28763;DHT22;15918;51.270;6.522;2023-04-19T00:07:26;14.10;59.70
28763;DHT22;15918;51.270;6.522;2023-04-19T00:09:51;14.10;59.80
28763;DHT22;15918;51.270;6.522;2023-04-19T00:12:17;14.10;59.80
28763;DHT22;15918;51.270;6.522;2023-04-19T00:14:43;14.10;59.80
28763;DHT22;15918;51.270;6.522;2023-04-19T00:17:09;14.10;59.90
28763;DHT22;15918;51.270;6.522;2023-04-19T00:19:36;14.20;60.00
28763;DHT22;15918;51.270;6.522;2023-04-19T00:22:02;14.10;60.00
28763;DHT22;15918;51.270;6.522;2023-04-19T00:24:27;14.20;60.10
28763;DHT22;15918;51.270;6.522;2023-04-19T00:26:53;14.10;60.10
28763;DHT22;15918;51.270;6.522;2023-04-19T00:29:18;14.10;60.20
28763;DHT22;15918;51.270;6.522;2023-04-19T00:31:44;14.10;60.20
28763;DHT22;15918;51.270;6.522;2023-04-19T00:34:10;14.20;60.20
28763;DHT22;15918;51.270;6.522;2023-04-19T00:36:35;14.10;60.20
28763;DHT22;15918;51.270;6.522;2023-04-19T00:39:01;14.10;60.20
28763;DHT22;15918;51.270;6.522;2023-04-19T00:41:27;14.10;60.30
28763;DHT22;15918;51.270;6.522;2023-04-19T00:43:53;14.20;60.30
28763;DHT22;15918;51.270;6.522;2023-04-19T00:46:19;14.10;60.40
28763;DHT22;15918;51.270;6.522;2023-04-19T00:48:44;14.10;60.40
28763;DHT22;15918;51.270;6.522;2023-04-19T00:51:10;14.10;60.50
28763;DHT22;15918;51.270;6.522;2023-04-19T00:53:37;14.10;60.60
28763;DHT22;15918;51.270;6.522;2023-04-19T00:56:04;14.10;60.60
28763;DHT22;15918;51.270;6.522;2023-04-19T00:58:31;14.10;60.60
28763;DHT22;15918;51.270;6.522;2023-04-19T01:00:56;14.10;60.70
28763;DHT22;15918;51.270;6.522;2023-04-19T01:03:22;14.10;60.60
28763;DHT22;15918;51.270;6.522;2023-04-19T01:05:48;14.10;60.60
28763;DHT22;15918;51.270;6.522;2023-04-19T01:08:14;14.10;60.70
28763;DHT22;15918;51.270;6.522;2023-04-19T01:10:40;14.10;60.70
28763;DHT22;15918;51.270;6.522;2023-04-19T01:13:05;14.10;60.80
28763;DHT22;15918;51.270;6.522;2023-04-19T01:15:31;14.10;61.00
28763;DHT22;15918;51.270;6.522;2023-04-19T01:17:56;14.10;61.00
28763;DHT22;15918;51.270;6.522;2023-04-19T01:20:22;14.10;61.10
28763;DHT22;15918;51.270;6.522;2023-04-19T01:22:48;14.10;61.10
28763;DHT22;15918;51.270;6.522;2023-04-19T01:25:13;14.10;61.20
28763;DHT22;15918;51.270;6.522;2023-04-19T01:27:40;14.10;61.20
28763;DHT22;15918;51.270;6.522;2023-04-19T01:30:06;14.10;61.30
28763;DHT22;15918;51.270;6.522;2023-04-19T01:32:31;14.10;61.30
28763;DHT22;15918;51.270;6.522;2023-04-19T01:34:57;14.10;61.40
28763;DHT22;15918;51.270;6.522;2023-04-19T01:37:23;14.10;61.40
28763;DHT22;15918;51.270;6.522;2023-04-19T01:39:48;14.10;61.60
28763;DHT22;15918;51.270;6.522;2023-04-19T01:42:14;14.10;61.60
28763;DHT22;15918;51.270;6.522;2023-04-19T01:44:40;14.10;61.70
28763;DHT22;15918;51.270;6.522;2023-04-19T01:47:05;14.10;61.80
28763;DHT22;15918;51.270;6.522;2023-04-19T01:49:31;14.10;61.80
28763;DHT22;15918;51.270;6.522;2023-04-19T01:51:56;14.10;61.80
28763;DHT22;15918;51.270;6.522;2023-04-19T01:54:22;14.10;61.90
28763;DHT22;15918;51.270;6.522;2023-04-19T01:56:48;14.10;62.00
28763;DHT22;15918;51.270;6.522;2023-04-19T01:59:13;14.10;62.00
28763;DHT22;15918;51.270;6.522;2023-04-19T02:01:39;14.10;62.00
28763;DHT22;15918;51.270;6.522;2023-04-19T02:04:05;14.10;62.10
28763;DHT22;15918;51.270;6.522;2023-04-19T02:06:32;14.10;62.20
28763;DHT22;15918;51.270;6.522;2023-04-19T02:08:57;14.10;62.20
28763;DHT22;15918;51.270;6.522;2023-04-19T02:11:23;14.10;62.40
28763;DHT22;15918;51.270;6.522;2023-04-19T02:13:48;14.10;62.40
28763;DHT22;15918;51.270;6.522;2023-04-19T02:16:14;14.10;62.60
28763;DHT22;15918;51.270;6.522;2023-04-19T02:18:40;14.10;62.60
28763;DHT22;15918;51.270;6.522;2023-04-19T02:21:06;14.10;62.70
28763;DHT22;15918;51.270;6.522;2023-04-19T02:23:32;14.10;62.80
28763;DHT22;15918;51.270;6.522;2023-04-19T02:25:59;14.10;62.80
28763;DHT22;15918;51.270;6.522;2023-04-19T02:28:28;14.10;63.00
28763;DHT22;15918;51.270;6.522;2023-04-19T02:30:53;14.10;63.90
28763;DHT22;15918;51.270;6.522;2023-04-19T02:33:21;14.10;63.30
28763;DHT22;15918;51.270;6.522;2023-04-19T02:35:47;14.10;63.30
28763;DHT22;15918;51.270;6.522;2023-04-19T02:38:13;14.00;63.30
28763;DHT22;15918;51.270;6.522;2023-04-19T02:40:38;14.00;63.20
28763;DHT22;15918;51.270;6.522;2023-04-19T02:43:04;14.10;63.40
28763;DHT22;15918;51.270;6.522;2023-04-19T02:45:30;14.10;63.40
28763;DHT22;15918;51.270;6.522;2023-04-19T02:47:55;14.10;63.40
28763;DHT22;15918;51.270;6.522;2023-04-19T02:50:21;14.10;63.40
28763;DHT22;15918;51.270;6.522;2023-04-19T02:52:47;14.10;63.40
28763;DHT22;15918;51.270;6.522;2023-04-19T02:55:12;14.10;63.40
28763;DHT22;15918;51.270;6.522;2023-04-19T02:57:38;14.10;63.40
28763;DHT22;15918;51.270;6.522;2023-04-19T03:00:04;14.10;63.40
28763;DHT22;15918;51.270;6.522;2023-04-19T03:02:30;14.10;63.40
28763;DHT22;15918;51.270;6.522;2023-04-19T03:04:56;14.10;63.40
28763;DHT22;15918;51.270;6.522;2023-04-19T03:07:22;14.10;63.30
28763;DHT22;15918;51.270;6.522;2023-04-19T03:09:47;14.10;63.30
28763;DHT22;15918;51.270;6.522;2023-04-19T03:12:13;14.10;63.30
28763;DHT22;15918;51.270;6.522;2023-04-19T03:14:39;14.10;63.30
28763;DHT22;15918;51.270;6.522;2023-04-19T03:17:04;14.10;63.20
28763;DHT22;15918;51.270;6.522;2023-04-19T03:19:30;14.10;63.20
28763;DHT22;15918;51.270;6.522;2023-04-19T03:21:55;14.10;63.20
28763;DHT22;15918;51.270;6.522;2023-04-19T03:24:30;14.10;63.20
28763;DHT22;15918;51.270;6.522;2023-04-19T03:26:56;14.10;63.20
28763;DHT22;15918;51.270;6.522;2023-04-19T03:29:22;14.10;63.20
28763;DHT22;15918;51.270;6.522;2023-04-19T03:31:48;14.10;63.20
28763;DHT22;15918;51.270;6.522;2023-04-19T03:34:14;14.00;63.20
28763;DHT22;15918;51.270;6.522;2023-04-19T03:36:40;14.10;63.30
28763;DHT22;15918;51.270;6.522;2023-04-19T03:39:06;14.10;63.30
28763;DHT22;15918;51.270;6.522;2023-04-19T03:41:31;14.00;63.30
28763;DHT22;15918;51.270;6.522;2023-04-19T03:43:57;14.00;63.30
28763;DHT22;15918;51.270;6.522;2023-04-19T03:46:23;14.00;63.20
28763;DHT22;15918;51.270;6.522;2023-04-19T03:48:49;14.10;63.30
28763;DHT22;15918;51.270;6.522;2023-04-19T03:51:15;14.00;63.20
28763;DHT22;15918;51.270;6.522;2023-04-19T03:53:41;14.00;63.20
28763;DHT22;15918;51.270;6.522;2023-04-19T03:56:07;14.00;63.10
28763;DHT22;15918;51.270;6.522;2023-04-19T03:58:33;14.00;63.10
28763;DHT22;15918;51.270;6.522;2023-04-19T04:00:59;14.10;63.10
28763;DHT22;15918;51.270;6.522;2023-04-19T04:03:25;14.10;63.00
28763;DHT22;15918;51.270;6.522;2023-04-19T04:05:51;14.10;63.00
28763;DHT22;15918;51.270;6.522;2023-04-19T04:08:17;14.00;62.90
28763;DHT22;15918;51.270;6.522;2023-04-19T04:10:42;14.10;62.90
28763;DHT22;15918;51.270;6.522;2023-04-19T04:13:08;14.10;62.80
28763;DHT22;15918;51.270;6.522;2023-04-19T04:15:33;14.10;62.90
28763;DHT22;15918;51.270;6.522;2023-04-19T04:17:59;14.00;62.80
28763;DHT22;15918;51.270;6.522;2023-04-19T04:20:24;14.10;62.80
28763;DHT22;15918;51.270;6.522;2023-04-19T04:22:50;14.10;62.80
28763;DHT22;15918;51.270;6.522;2023-04-19T04:25:17;14.10;62.80
28763;DHT22;15918;51.270;6.522;2023-04-19T04:27:42;14.00;62.70
28763;DHT22;15918;51.270;6.522;2023-04-19T04:30:09;14.00;62.60
28763;DHT22;15918;51.270;6.522;2023-04-19T04:32:36;14.00;62.60
28763;DHT22;15918;51.270;6.522;2023-04-19T04:35:05;14.10;62.60
28763;DHT22;15918;51.270;6.522;2023-04-19T04:37:31;14.00;62.40
28763;DHT22;15918;51.270;6.522;2023-04-19T04:40:01;14.00;62.50
28763;DHT22;15918;51.270;6.522;2023-04-19T04:42:29;14.00;62.40
28763;DHT22;15918;51.270;6.522;2023-04-19T04:44:56;14.00;62.40
28763;DHT22;15918;51.270;6.522;2023-04-19T04:47:22;14.00;62.30
28763;DHT22;15918;51.270;6.522;2023-04-19T04:49:48;14.00;62.20
28763;DHT22;15918;51.270;6.522;2023-04-19T04:52:14;14.00;62.20
28763;DHT22;15918;51.270;6.522;2023-04-19T04:54:40;14.00;62.20
28763;DHT22;15918;51.270;6.522;2023-04-19T04:57:07;14.00;62.20
28763;DHT22;15918;51.270;6.522;2023-04-19T04:59:32;14.00;62.20
28763;DHT22;15918;51.270;6.522;2023-04-19T05:01:58;14.00;62.20
28763;DHT22;15918;51.270;6.522;2023-04-19T05:04:24;14.00;62.20
28763;DHT22;15918;51.270;6.522;2023-04-19T05:06:49;14.00;62.10
28763;DHT22;15918;51.270;6.522;2023-04-19T05:09:15;14.00;62.10
28763;DHT22;15918;51.270;6.522;2023-04-19T05:11:41;13.90;62.00
28763;DHT22;15918;51.270;6.522;2023-04-19T05:14:06;13.90;61.80
28763;DHT22;15918;51.270;6.522;2023-04-19T05:16:32;13.90;61.80
28763;DHT22;15918;51.270;6.522;2023-04-19T05:18:58;13.90;61.70
28763;DHT22;15918;51.270;6.522;2023-04-19T05:21:24;14.00;61.80
28763;DHT22;15918;51.270;6.522;2023-04-19T05:23:51;13.90;62.50
28763;DHT22;15918;51.270;6.522;2023-04-19T05:26:18;13.90;61.50
28763;DHT22;15918;51.270;6.522;2023-04-19T05:28:43;13.90;61.40
28763;DHT22;15918;51.270;6.522;2023-04-19T05:31:10;13.90;61.20
28763;DHT22;15918;51.270;6.522;2023-04-19T05:33:36;13.90;60.90
28763;DHT22;15918;51.270;6.522;2023-04-19T05:36:01;13.90;60.80
28763;DHT22;15918;51.270;6.522;2023-04-19T05:38:27;13.90;60.50
28763;DHT22;15918;51.270;6.522;2023-04-19T05:40:53;13.90;60.30
28763;DHT22;15918;51.270;6.522;2023-04-19T05:43:18;13.90;60.10
28763;DHT22;15918;51.270;6.522;2023-04-19T05:45:44;13.90;60.00
28763;DHT22;15918;51.270;6.522;2023-04-19T05:48:09;13.90;59.80
28763;DHT22;15918;51.270;6.522;2023-04-19T05:50:35;13.90;59.70
28763;DHT22;15918;51.270;6.522;2023-04-19T05:53:01;13.80;59.60
28763;DHT22;15918;51.270;6.522;2023-04-19T05:55:27;13.80;59.40
28763;DHT22;15918;51.270;6.522;2023-04-19T05:57:53;13.80;59.20
28763;DHT22;15918;51.270;6.522;2023-04-19T06:00:18;13.80;59.00
28763;DHT22;15918;51.270;6.522;2023-04-19T06:02:45;13.80;58.90
28763;DHT22;15918;51.270;6.522;2023-04-19T06:05:10;13.90;58.90
28763;DHT22;15918;51.270;6.522;2023-04-19T06:07:36;13.80;58.70
28763;DHT22;15918;51.270;6.522;2023-04-19T06:10:02;13.90;58.50
28763;DHT22;15918;51.270;6.522;2023-04-19T06:12:27;13.80;58.40
28763;DHT22;15918;51.270;6.522;2023-04-19T06:14:53;13.80;58.40
28763;DHT22;15918;51.270;6.522;2023-04-19T06:17:19;13.90;58.40
28763;DHT22;15918;51.270;6.522;2023-04-19T06:19:52;13.90;58.20
28763;DHT22;15918;51.270;6.522;2023-04-19T06:22:18;13.90;58.20
28763;DHT22;15918;51.270;6.522;2023-04-19T06:24:45;14.00;58.20
28763;DHT22;15918;51.270;6.522;2023-04-19T06:27:11;14.00;58.20
28763;DHT22;15918;51.270;6.522;2023-04-19T06:29:37;14.00;58.20
28763;DHT22;15918;51.270;6.522;2023-04-19T06:32:02;14.10;58.30
28763;DHT22;15918;51.270;6.522;2023-04-19T06:34:28;14.10;58.20
28763;DHT22;15918;51.270;6.522;2023-04-19T06:36:54;14.10;58.20
28763;DHT22;15918;51.270;6.522;2023-04-19T06:39:19;14.10;58.20
28763;DHT22;15918;51.270;6.522;2023-04-19T06:41:45;14.10;58.00
28763;DHT22;15918;51.270;6.522;2023-04-19T06:44:11;14.20;57.90
28763;DHT22;15918;51.270;6.522;2023-04-19T06:46:37;14.20;57.80
28763;DHT22;15918;51.270;6.522;2023-04-19T06:49:03;14.20;57.80
28763;DHT22;15918;51.270;6.522;2023-04-19T06:51:28;14.20;57.80
28763;DHT22;15918;51.270;6.522;2023-04-19T06:53:54;14.20;57.80
28763;DHT22;15918;51.270;6.522;2023-04-19T06:56:39;14.30;57.70
28763;DHT22;15918;51.270;6.522;2023-04-19T06:59:06;14.30;57.50
28763;DHT22;15918;51.270;6.522;2023-04-19T07:01:32;14.30;57.60
28763;DHT22;15918;51.270;6.522;2023-04-19T07:03:57;14.30;57.40
28763;DHT22;15918;51.270;6.522;2023-04-19T07:06:23;14.40;57.40
28763;DHT22;15918;51.270;6.522;2023-04-19T07:08:49;14.40;57.30
28763;DHT22;15918;51.270;6.522;2023-04-19T07:11:14;14.40;57.30
28763;DHT22;15918;51.270;6.522;2023-04-19T07:13:40;14.40;57.00
28763;DHT22;15918;51.270;6.522;2023-04-19T07:16:06;14.50;56.90
28763;DHT22;15918;51.270;6.522;2023-04-19T07:18:32;14.50;57.20
28763;DHT22;15918;51.270;6.522;2023-04-19T07:20:58;14.50;56.30
28763;DHT22;15918;51.270;6.522;2023-04-19T07:23:23;14.50;56.90
28763;DHT22;15918;51.270;6.522;2023-04-19T07:25:49;14.50;56.00
28763;DHT22;15918;51.270;6.522;2023-04-19T07:28:14;14.60;55.90
28763;DHT22;15918;51.270;6.522;2023-04-19T07:30:40;14.60;55.60
28763;DHT22;15918;51.270;6.522;2023-04-19T07:33:06;14.60;55.60
28763;DHT22;15918;51.270;6.522;2023-04-19T07:35:33;14.60;55.50
28763;DHT22;15918;51.270;6.522;2023-04-19T07:38:00;14.70;55.40
28763;DHT22;15918;51.270;6.522;2023-04-19T07:40:25;14.70;55.30
28763;DHT22;15918;51.270;6.522;2023-04-19T07:42:51;14.70;55.10
28763;DHT22;15918;51.270;6.522;2023-04-19T07:45:19;14.70;54.70
28763;DHT22;15918;51.270;6.522;2023-04-19T07:47:45;14.70;54.50
28763;DHT22;15918;51.270;6.522;2023-04-19T07:50:10;14.70;54.40
28763;DHT22;15918;51.270;6.522;2023-04-19T07:52:36;14.80;54.30
28763;DHT22;15918;51.270;6.522;2023-04-19T07:55:02;14.70;54.10
28763;DHT22;15918;51.270;6.522;2023-04-19T07:57:28;14.80;54.00
28763;DHT22;15918;51.270;6.522;2023-04-19T07:59:53;14.80;53.80
28763;DHT22;15918;51.270;6.522;2023-04-19T08:02:25;14.80;53.60
28763;DHT22;15918;51.270;6.522;2023-04-19T08:04:52;14.80;53.70
28763;DHT22;15918;51.270;6.522;2023-04-19T08:07:18;14.80;53.70
28763;DHT22;15918;51.270;6.522;2023-04-19T08:09:43;14.80;53.80
28763;DHT22;15918;51.270;6.522;2023-04-19T08:12:09;14.90;53.70
28763;DHT22;15918;51.270;6.522;2023-04-19T08:14:34;14.90;53.60
28763;DHT22;15918;51.270;6.522;2023-04-19T08:17:03;14.90;53.50
28763;DHT22;15918;51.270;6.522;2023-04-19T08:19:29;14.90;53.70
28763;DHT22;15918;51.270;6.522;2023-04-19T08:21:54;14.90;53.60
28763;DHT22;15918;51.270;6.522;2023-04-19T08:24:21;14.90;53.20
28763;DHT22;15918;51.270;6.522;2023-04-19T08:26:46;15.00;53.10
28763;DHT22;15918;51.270;6.522;2023-04-19T08:29:18;14.90;52.90
28763;DHT22;15918;51.270;6.522;2023-04-19T08:31:45;15.00;52.90
28763;DHT22;15918;51.270;6.522;2023-04-19T08:34:10;15.00;52.50
28763;DHT22;15918;51.270;6.522;2023-04-19T08:36:36;15.00;52.00
28763;DHT22;15918;51.270;6.522;2023-04-19T08:39:02;15.00;52.20
28763;DHT22;15918;51.270;6.522;2023-04-19T08:41:29;15.10;52.30
28763;DHT22;15918;51.270;6.522;2023-04-19T08:43:56;15.10;52.30
28763;DHT22;15918;51.270;6.522;2023-04-19T08:46:23;15.10;52.20
28763;DHT22;15918;51.270;6.522;2023-04-19T08:48:49;15.10;52.20
28763;DHT22;15918;51.270;6.522;2023-04-19T08:51:16;15.20;52.20
28763;DHT22;15918;51.270;6.522;2023-04-19T08:53:43;15.20;52.00
28763;DHT22;15918;51.270;6.522;2023-04-19T08:56:09;15.20;51.80
28763;DHT22;15918;51.270;6.522;2023-04-19T08:58:35;15.20;51.70
28763;DHT22;15918;51.270;6.522;2023-04-19T09:01:03;15.30;51.70
28763;DHT22;15918;51.270;6.522;2023-04-19T09:03:29;15.30;51.60
28763;DHT22;15918;51.270;6.522;2023-04-19T09:05:55;15.20;51.60
28763;DHT22;15918;51.270;6.522;2023-04-19T09:08:28;15.30;51.50
28763;DHT22;15918;51.270;6.522;2023-04-19T09:10:56;15.30;51.20
28763;DHT22;15918;51.270;6.522;2023-04-19T09:13:23;15.30;51.00
28763;DHT22;15918;51.270;6.522;2023-04-19T09:15:49;15.30;50.90
28763;DHT22;15918;51.270;6.522;2023-04-19T09:18:15;15.30;50.90
28763;DHT22;15918;51.270;6.522;2023-04-19T09:20:42;15.30;50.80
28763;DHT22;15918;51.270;6.522;2023-04-19T09:23:11;15.40;50.70
28763;DHT22;15918;51.270;6.522;2023-04-19T09:25:41;15.40;50.60
28763;DHT22;15918;51.270;6.522;2023-04-19T09:28:15;15.40;50.50
28763;DHT22;15918;51.270;6.522;2023-04-19T09:30:40;15.40;50.50
28763;DHT22;15918;51.270;6.522;2023-04-19T09:33:06;15.40;50.40
28763;DHT22;15918;51.270;6.522;2023-04-19T09:35:42;15.40;50.40
28763;DHT22;15918;51.270;6.522;2023-04-19T09:38:09;15.40;50.00
28763;DHT22;15918;51.270;6.522;2023-04-19T09:40:35;15.50;50.10
28763;DHT22;15918;51.270;6.522;2023-04-19T09:43:02;15.50;50.20
28763;DHT22;15918;51.270;6.522;2023-04-19T09:45:41;15.50;50.10
28763;DHT22;15918;51.270;6.522;2023-04-19T09:48:09;15.50;50.00
28763;DHT22;15918;51.270;6.522;2023-04-19T09:50:35;15.50;49.60
28763;DHT22;15918;51.270;6.522;2023-04-19T09:53:02;15.50;48.50
28763;DHT22;15918;51.270;6.522;2023-04-19T09:55:28;15.50;48.20
28763;DHT22;15918;51.270;6.522;2023-04-19T09:57:55;15.60;48.30
28763;DHT22;15918;51.270;6.522;2023-04-19T10:00:21;15.60;48.30
28763;DHT22;15918;51.270;6.522;2023-04-19T10:02:50;15.60;48.60
28763;DHT22;15918;51.270;6.522;2023-04-19T10:05:20;15.60;48.70
28763;DHT22;15918;51.270;6.522;2023-04-19T10:07:48;15.60;48.80
28763;DHT22;15918;51.270;6.522;2023-04-19T10:10:15;15.70;48.90
28763;DHT22;15918;51.270;6.522;2023-04-19T10:12:46;15.60;48.70
28763;DHT22;15918;51.270;6.522;2023-04-19T10:15:13;15.70;48.70
28763;DHT22;15918;51.270;6.522;2023-04-19T10:17:39;15.70;48.40
28763;DHT22;15918;51.270;6.522;2023-04-19T10:20:12;15.70;48.20
28763;DHT22;15918;51.270;6.522;2023-04-19T10:22:41;15.80;47.80
28763;DHT22;15918;51.270;6.522;2023-04-19T10:25:11;15.70;47.70
28763;DHT22;15918;51.270;6.522;2023-04-19T10:27:38;15.80;47.30
28763;DHT22;15918;51.270;6.522;2023-04-19T10:30:05;15.80;47.10
28763;DHT22;15918;51.270;6.522;2023-04-19T10:32:41;15.80;46.70
28763;DHT22;15918;51.270;6.522;2023-04-19T10:35:18;15.80;46.60
28763;DHT22;15918;51.270;6.522;2023-04-19T10:38:08;15.80;46.30
28763;DHT22;15918;51.270;6.522;2023-04-19T10:40:59;15.80;46.00
28763;DHT22;15918;51.270;6.522;2023-04-19T10:43:34;15.80;46.00
28763;DHT22;15918;51.270;6.522;2023-04-19T10:46:02;15.90;46.40
28763;DHT22;15918;51.270;6.522;2023-04-19T10:48:31;15.80;46.20
28763;DHT22;15918;51.270;6.522;2023-04-19T10:51:01;15.80;45.90
28763;DHT22;15918;51.270;6.522;2023-04-19T10:56:14;15.90;45.20
28763;DHT22;15918;51.270;6.522;2023-04-19T11:04:01;15.90;44.90
28763;DHT22;15918;51.270;6.522;2023-04-19T11:06:27;15.90;44.80
28763;DHT22;15918;51.270;6.522;2023-04-19T11:08:53;15.90;44.50
28763;DHT22;15918;51.270;6.522;2023-04-19T11:11:19;15.90;44.10
28763;DHT22;15918;51.270;6.522;2023-04-19T11:13:48;16.00;44.10
28763;DHT22;15918;51.270;6.522;2023-04-19T11:16:14;16.00;43.90
28763;DHT22;15918;51.270;6.522;2023-04-19T11:18:40;16.00;44.20
28763;DHT22;15918;51.270;6.522;2023-04-19T11:21:05;16.00;44.00
28763;DHT22;15918;51.270;6.522;2023-04-19T11:23:31;16.00;43.90
28763;DHT22;15918;51.270;6.522;2023-04-19T11:25:57;16.10;43.90
28763;DHT22;15918;51.270;6.522;2023-04-19T11:28:23;16.00;44.70
28763;DHT22;15918;51.270;6.522;2023-04-19T11:30:49;16.00;44.30
28763;DHT22;15918;51.270;6.522;2023-04-19T11:33:18;16.00;44.10
28763;DHT22;15918;51.270;6.522;2023-04-19T11:35:49;16.10;44.20
28763;DHT22;15918;51.270;6.522;2023-04-19T11:38:15;16.10;43.90
28763;DHT22;15918;51.270;6.522;2023-04-19T11:40:41;16.10;44.00
28763;DHT22;15918;51.270;6.522;2023-04-19T11:43:06;16.10;44.50
28763;DHT22;15918;51.270;6.522;2023-04-19T11:45:34;16.10;43.90
28763;DHT22;15918;51.270;6.522;2023-04-19T11:48:02;16.10;43.70
28763;DHT22;15918;51.270;6.522;2023-04-19T11:50:38;16.10;43.90
28763;DHT22;15918;51.270;6.522;2023-04-19T11:55:49;16.10;44.10
28763;DHT22;15918;51.270;6.522;2023-04-19T11:58:45;16.20;43.70
28763;DHT22;15918;51.270;6.522;2023-04-19T12:01:18;16.10;44.30
28763;DHT22;15918;51.270;6.522;2023-04-19T12:03:54;16.10;44.00
28763;DHT22;15918;51.270;6.522;2023-04-19T12:06:24;16.10;44.00
28763;DHT22;15918;51.270;6.522;2023-04-19T12:08:51;16.20;44.10
28763;DHT22;15918;51.270;6.522;2023-04-19T12:11:18;16.10;44.20
28763;DHT22;15918;51.270;6.522;2023-04-19T12:13:44;16.20;44.30
28763;DHT22;15918;51.270;6.522;2023-04-19T12:16:12;16.20;44.20
28763;DHT22;15918;51.270;6.522;2023-04-19T12:18:49;16.20;43.80
28763;DHT22;15918;51.270;6.522;2023-04-19T12:21:26;16.30;44.00
28763;DHT22;15918;51.270;6.522;2023-04-19T12:23:59;16.30;43.90
28763;DHT22;15918;51.270;6.522;2023-04-19T12:26:26;16.30;43.80
28763;DHT22;15918;51.270;6.522;2023-04-19T12:28:57;16.20;43.60
28763;DHT22;15918;51.270;6.522;2023-04-19T12:31:23;16.30;43.30
28763;DHT22;15918;51.270;6.522;2023-04-19T12:33:49;16.40;43.40
28763;DHT22;15918;51.270;6.522;2023-04-19T12:36:14;16.30;43.20
28763;DHT22;15918;51.270;6.522;2023-04-19T12:38:40;16.30;43.00
28763;DHT22;15918;51.270;6.522;2023-04-19T12:41:07;16.30;42.70
28763;DHT22;15918;51.270;6.522;2023-04-19T12:43:32;16.30;42.20
28763;DHT22;15918;51.270;6.522;2023-04-19T12:45:59;16.30;42.50
28763;DHT22;15918;51.270;6.522;2023-04-19T12:48:25;16.30;42.70
28763;DHT22;15918;51.270;6.522;2023-04-19T12:50:51;16.30;42.80
28763;DHT22;15918;51.270;6.522;2023-04-19T12:53:17;16.40;42.80
28763;DHT22;15918;51.270;6.522;2023-04-19T12:55:43;16.30;42.70
28763;DHT22;15918;51.270;6.522;2023-04-19T12:58:14;16.30;42.20
28763;DHT22;15918;51.270;6.522;2023-04-19T13:00:40;16.30;41.90
28763;DHT22;15918;51.270;6.522;2023-04-19T13:03:05;16.30;41.70
28763;DHT22;15918;51.270;6.522;2023-04-19T13:05:31;16.30;41.90
28763;DHT22;15918;51.270;6.522;2023-04-19T13:07:57;16.30;42.00
28763;DHT22;15918;51.270;6.522;2023-04-19T13:10:22;16.30;42.30
28763;DHT22;15918;51.270;6.522;2023-04-19T13:12:48;16.30;42.40
28763;DHT22;15918;51.270;6.522;2023-04-19T13:15:13;16.30;42.20
28763;DHT22;15918;51.270;6.522;2023-04-19T13:17:39;16.30;42.20
28763;DHT22;15918;51.270;6.522;2023-04-19T13:20:05;16.30;41.90
28763;DHT22;15918;51.270;6.522;2023-04-19T13:22:31;16.30;41.70
28763;DHT22;15918;51.270;6.522;2023-04-19T13:24:57;16.40;41.70
28763;DHT22;15918;51.270;6.522;2023-04-19T13:27:23;16.30;41.50
28763;DHT22;15918;51.270;6.522;2023-04-19T13:29:48;16.30;41.30
28763;DHT22;15918;51.270;6.522;2023-04-19T13:32:14;16.40;41.60
28763;DHT22;15918;51.270;6.522;2023-04-19T13:34:39;16.40;41.70
28763;DHT22;15918;51.270;6.522;2023-04-19T13:37:06;16.40;41.80
28763;DHT22;15918;51.270;6.522;2023-04-19T13:39:32;16.40;41.90
28763;DHT22;15918;51.270;6.522;2023-04-19T13:41:59;16.40;41.60
28763;DHT22;15918;51.270;6.522;2023-04-19T13:44:26;16.40;41.80
28763;DHT22;15918;51.270;6.522;2023-04-19T13:46:52;16.40;41.50
28763;DHT22;15918;51.270;6.522;2023-04-19T13:49:17;16.40;41.50
28763;DHT22;15918;51.270;6.522;2023-04-19T13:51:43;16.40;41.50
28763;DHT22;15918;51.270;6.522;2023-04-19T13:54:09;16.40;41.30
28763;DHT22;15918;51.270;6.522;2023-04-19T13:56:35;16.40;41.10
28763;DHT22;15918;51.270;6.522;2023-04-19T13:59:00;16.40;41.40
28763;DHT22;15918;51.270;6.522;2023-04-19T14:01:26;16.40;41.50
28763;DHT22;15918;51.270;6.522;2023-04-19T14:03:52;16.40;41.50
28763;DHT22;15918;51.270;6.522;2023-04-19T14:06:18;16.40;41.40
28763;DHT22;15918;51.270;6.522;2023-04-19T14:08:43;16.40;41.40
28763;DHT22;15918;51.270;6.522;2023-04-19T14:11:09;16.40;41.50
28763;DHT22;15918;51.270;6.522;2023-04-19T14:13:35;16.40;41.30
28763;DHT22;15918;51.270;6.522;2023-04-19T14:16:00;16.40;41.40
28763;DHT22;15918;51.270;6.522;2023-04-19T14:18:26;16.40;41.40
28763;DHT22;15918;51.270;6.522;2023-04-19T14:20:52;16.40;41.40
28763;DHT22;15918;51.270;6.522;2023-04-19T14:23:17;16.40;41.50
28763;DHT22;15918;51.270;6.522;2023-04-19T14:25:43;16.40;41.60
28763;DHT22;15918;51.270;6.522;2023-04-19T14:28:08;16.40;41.60
28763;DHT22;15918;51.270;6.522;2023-04-19T14:30:37;16.40;41.50
28763;DHT22;15918;51.270;6.522;2023-04-19T14:33:02;16.40;41.70
28763;DHT22;15918;51.270;6.522;2023-04-19T14:35:28;16.40;41.70
28763;DHT22;15918;51.270;6.522;2023-04-19T14:37:53;16.40;41.60
28763;DHT22;15918;51.270;6.522;2023-04-19T14:40:19;16.40;41.50
28763;DHT22;15918;51.270;6.522;2023-04-19T14:42:45;16.40;41.40
28763;DHT22;15918;51.270;6.522;2023-04-19T14:45:10;16.40;41.50
28763;DHT22;15918;51.270;6.522;2023-04-19T14:47:36;16.40;41.50
28763;DHT22;15918;51.270;6.522;2023-04-19T14:50:02;16.40;41.20
28763;DHT22;15918;51.270;6.522;2023-04-19T14:52:28;16.40;41.00
28763;DHT22;15918;51.270;6.522;2023-04-19T14:54:54;16.30;41.00
28763;DHT22;15918;51.270;6.522;2023-04-19T14:57:22;16.40;41.00
28763;DHT22;15918;51.270;6.522;2023-04-19T14:59:47;16.30;41.00
28763;DHT22;15918;51.270;6.522;2023-04-19T15:02:13;16.30;41.00
28763;DHT22;15918;51.270;6.522;2023-04-19T15:04:38;16.40;41.00
28763;DHT22;15918;51.270;6.522;2023-04-19T15:07:04;16.30;40.60
28763;DHT22;15918;51.270;6.522;2023-04-19T15:09:30;16.30;40.40
28763;DHT22;15918;51.270;6.522;2023-04-19T15:11:55;16.40;40.70
28763;DHT22;15918;51.270;6.522;2023-04-19T15:14:22;16.30;40.80
28763;DHT22;15918;51.270;6.522;2023-04-19T15:16:47;16.30;40.60
28763;DHT22;15918;51.270;6.522;2023-04-19T15:19:13;16.30;41.40
28763;DHT22;15918;51.270;6.522;2023-04-19T15:21:39;16.30;40.80
28763;DHT22;15918;51.270;6.522;2023-04-19T15:24:05;16.30;40.50
28763;DHT22;15918;51.270;6.522;2023-04-19T15:26:32;16.30;40.50
28763;DHT22;15918;51.270;6.522;2023-04-19T15:28:57;16.30;40.50
28763;DHT22;15918;51.270;6.522;2023-04-19T15:31:23;16.30;40.60
28763;DHT22;15918;51.270;6.522;2023-04-19T15:33:49;16.30;40.50
28763;DHT22;15918;51.270;6.522;2023-04-19T15:36:15;16.30;40.60